createdAt,value
2023-05-21T00:02:23.443Z,17.30
2023-05-21T00:04:51.447Z,17.30
2023-05-21T00:07:18.760Z,17.20
2023-05-21T00:09:50.618Z,17.20
2023-05-21T00:12:20.048Z,17.20
2023-05-21T00:14:46.965Z,17.20
2023-05-21T00:17:16.463Z,17.20
2023-05-21T00:19:43.377Z,17.10
2023-05-21T00:22:14.292Z,17.10
2023-05-21T00:24:45.979Z,17.10
2023-05-21T00:27:16.392Z,17.10
2023-05-21T00:29:47.811Z,17.10
2023-05-21T00:32:17.137Z,17.00
2023-05-21T00:34:44.333Z,17.00
2023-05-21T00:37:15.263Z,16.90
2023-05-21T00:39:43.127Z,16.90
2023-05-21T00:42:12.336Z,16.80
2023-05-21T00:44:39.317Z,16.80
2023-05-21T00:47:10.808Z,16.80
2023-05-21T00:49:37.735Z,16.70
2023-05-21T00:52:05.437Z,16.70
2023-05-21T00:54:34.524Z,16.70
2023-05-21T00:57:06.917Z,16.80
2023-05-21T00:59:34.085Z,16.80
2023-05-21T01:02:06.658Z,16.80
2023-05-21T01:04:33.640Z,16.70
2023-05-21T01:07:03.067Z,16.70
2023-05-21T01:09:33.027Z,16.70
2023-05-21T01:12:05.465Z,16.70
2023-05-21T01:14:35.381Z,16.70
2023-05-21T01:17:04.199Z,16.60
2023-05-21T01:19:32.533Z,16.60
2023-05-21T01:22:09.068Z,16.50
2023-05-21T01:24:36.273Z,16.50
2023-05-21T01:27:07.763Z,16.50
2023-05-21T01:29:37.618Z,16.50
2023-05-21T01:32:52.128Z,16.50
2023-05-21T01:35:32.226Z,16.50
2023-05-21T01:38:19.472Z,16.50
2023-05-21T01:40:53.217Z,16.50
2023-05-21T01:43:22.873Z,16.40
2023-05-21T01:45:54.989Z,16.50
2023-05-21T01:48:25.852Z,16.40
2023-05-21T01:50:57.699Z,16.50
2023-05-21T01:53:24.736Z,16.50
2023-05-21T01:55:54.572Z,16.40
2023-05-21T01:58:24.306Z,16.40
2023-05-21T02:00:57.024Z,16.50
2023-05-21T02:03:32.147Z,16.50
2023-05-21T02:06:01.508Z,16.50
2023-05-21T02:08:29.187Z,16.50
2023-05-21T02:10:56.194Z,16.50
2023-05-21T02:13:26.861Z,16.50
2023-05-21T02:15:54.638Z,16.50
2023-05-21T02:18:29.257Z,16.50
2023-05-21T02:20:56.366Z,16.40
2023-05-21T02:23:23.287Z,16.40
2023-05-21T02:25:52.672Z,16.40
2023-05-21T02:28:21.670Z,16.40
2023-05-21T02:30:48.578Z,16.40
2023-05-21T02:33:21.849Z,16.30
2023-05-21T02:35:48.969Z,16.30
2023-05-21T02:38:19.456Z,16.30
2023-05-21T02:40:53.124Z,16.30
2023-05-21T02:43:20.261Z,16.20
2023-05-21T02:45:51.466Z,16.20
2023-05-21T02:48:18.427Z,16.20
2023-05-21T02:50:45.340Z,16.20
2023-05-21T02:53:12.265Z,16.20
2023-05-21T02:55:39.379Z,16.20
2023-05-21T02:58:06.417Z,16.20
2023-05-21T03:00:35.723Z,16.20
2023-05-21T03:03:02.777Z,16.20
2023-05-21T03:05:29.850Z,16.20
2023-05-21T03:07:58.850Z,16.20
2023-05-21T03:10:27.835Z,16.10
2023-05-21T03:12:54.948Z,16.10
2023-05-21T03:15:24.530Z,16.10
2023-05-21T03:17:55.352Z,16.10
2023-05-21T03:20:22.327Z,16.10
2023-05-21T03:22:49.887Z,16.10
2023-05-21T03:25:19.122Z,16.00
2023-05-21T03:27:48.485Z,16.00
2023-05-21T03:30:17.977Z,16.00
2023-05-21T03:32:45.181Z,16.00
2023-05-21T03:35:14.630Z,16.00
2023-05-21T03:37:41.516Z,16.00
2023-05-21T03:40:09.279Z,15.90
2023-05-21T03:42:40.738Z,15.90
2023-05-21T03:45:08.024Z,15.90
2023-05-21T03:47:37.522Z,15.80
2023-05-21T03:50:05.743Z,15.80
2023-05-21T03:52:32.728Z,15.80
2023-05-21T03:55:01.925Z,15.80
2023-05-21T03:57:28.841Z,15.70
2023-05-21T04:00:01.298Z,15.70
2023-05-21T04:02:32.782Z,15.70
2023-05-21T04:04:59.813Z,15.70
2023-05-21T04:07:30.039Z,15.60
2023-05-21T04:09:59.205Z,15.60
2023-05-21T04:12:26.155Z,15.60
2023-05-21T04:14:55.256Z,15.50
2023-05-21T04:17:27.055Z,15.50
2023-05-21T04:19:54.422Z,15.50
2023-05-21T04:22:23.371Z,15.50
2023-05-21T04:24:50.489Z,15.50
2023-05-21T04:27:23.675Z,15.50
2023-05-21T04:29:54.798Z,15.60
2023-05-21T04:32:30.932Z,15.60
2023-05-21T04:34:58.085Z,15.60
2023-05-21T04:37:25.534Z,15.60
2023-05-21T04:39:55.346Z,15.60
2023-05-21T04:42:24.184Z,15.60
2023-05-21T04:44:51.413Z,15.70
2023-05-21T04:47:20.849Z,15.60
2023-05-21T04:49:50.866Z,15.60
2023-05-21T04:52:25.074Z,15.60
2023-05-21T04:54:54.073Z,15.60
2023-05-21T04:57:24.964Z,15.70
2023-05-21T04:59:54.151Z,15.70
2023-05-21T05:02:21.143Z,15.70
2023-05-21T05:04:48.034Z,15.70
2023-05-21T05:07:17.262Z,15.70
2023-05-21T05:09:47.371Z,15.80
2023-05-21T05:12:17.290Z,15.80
2023-05-21T05:14:46.265Z,15.80
2023-05-21T05:17:15.640Z,15.80
2023-05-21T05:19:42.615Z,15.90
2023-05-21T05:22:13.522Z,15.90
2023-05-21T05:24:43.094Z,16.00
2023-05-21T05:27:10.009Z,16.00
2023-05-21T05:29:37.039Z,16.00
2023-05-21T05:32:09.316Z,16.00
2023-05-21T05:34:37.263Z,16.10
2023-05-21T05:37:08.821Z,16.10
2023-05-21T05:39:38.148Z,16.10
2023-05-21T05:42:05.491Z,16.10
2023-05-21T05:44:39.199Z,16.10
2023-05-21T05:47:10.712Z,16.20
2023-05-21T05:49:39.761Z,16.20
2023-05-21T05:52:09.250Z,16.20
2023-05-21T05:54:43.689Z,16.20
2023-05-21T05:57:10.745Z,16.30
2023-05-21T05:59:39.949Z,16.30
2023-05-21T06:02:07.404Z,16.30
2023-05-21T06:04:34.338Z,16.40
2023-05-21T06:07:01.346Z,16.40
2023-05-21T06:09:28.240Z,16.40
2023-05-21T06:11:55.872Z,16.50
2023-05-21T06:14:22.764Z,16.50
2023-05-21T06:16:52.033Z,16.50
2023-05-21T06:19:21.383Z,16.60
2023-05-21T06:21:48.577Z,16.60
2023-05-21T06:24:15.532Z,16.60
2023-05-21T06:26:42.517Z,16.70
2023-05-21T06:29:14.789Z,16.80
2023-05-21T06:31:47.261Z,16.80
2023-05-21T06:34:14.451Z,16.80
2023-05-21T06:36:43.810Z,16.90
2023-05-21T06:39:10.764Z,17.00
2023-05-21T06:41:37.696Z,17.10
2023-05-21T06:44:07.319Z,17.10
2023-05-21T06:46:39.047Z,17.20
2023-05-21T06:49:07.156Z,17.30
2023-05-21T06:51:34.266Z,17.40
2023-05-21T06:54:03.707Z,17.60
2023-05-21T06:56:30.710Z,17.80
2023-05-21T06:58:59.946Z,18.10
2023-05-21T07:01:27.079Z,18.40
2023-05-21T07:03:56.493Z,18.70
2023-05-21T07:06:23.642Z,19.00
2023-05-21T07:08:52.832Z,19.40
2023-05-21T07:11:19.757Z,19.70
2023-05-21T07:13:49.149Z,20.10
2023-05-21T07:16:18.295Z,20.40
2023-05-21T07:18:45.289Z,20.70
2023-05-21T07:21:12.264Z,20.90
2023-05-21T07:23:41.687Z,21.10
2023-05-21T07:26:11.831Z,21.40
2023-05-21T07:28:41.331Z,21.50
2023-05-21T07:31:12.335Z,21.70
2023-05-21T07:33:39.422Z,21.80
2023-05-21T07:36:06.792Z,21.80
2023-05-21T07:38:36.125Z,21.80
2023-05-21T07:41:03.023Z,21.90
2023-05-21T07:43:31.673Z,21.80
2023-05-21T07:46:01.205Z,21.80
2023-05-21T07:48:30.978Z,21.70
2023-05-21T07:51:00.030Z,21.60
2023-05-21T07:53:32.471Z,21.50
2023-05-21T07:56:02.636Z,21.40
2023-05-21T07:58:31.102Z,21.40
2023-05-21T08:01:00.253Z,21.30
2023-05-21T08:03:30.953Z,21.30
2023-05-21T08:06:01.175Z,21.30
2023-05-21T08:08:28.196Z,21.30
2023-05-21T08:10:55.459Z,21.30
2023-05-21T08:13:24.684Z,21.40
2023-05-21T08:15:54.523Z,21.50
2023-05-21T08:18:23.849Z,21.60
2023-05-21T08:20:56.722Z,21.60
2023-05-21T08:23:23.734Z,21.70
2023-05-21T08:25:50.726Z,21.80
2023-05-21T08:28:17.635Z,21.90
2023-05-21T08:30:44.626Z,22.00
2023-05-21T08:33:14.955Z,22.10
2023-05-21T08:35:41.920Z,22.30
2023-05-21T08:38:08.808Z,22.40
2023-05-21T08:40:36.012Z,22.50
2023-05-21T08:43:05.932Z,22.60
2023-05-21T08:45:40.617Z,22.70
2023-05-21T08:48:11.428Z,22.80
2023-05-21T08:50:40.930Z,23.00
2023-05-21T08:53:15.920Z,23.10
2023-05-21T08:55:51.690Z,23.20
2023-05-21T08:58:21.952Z,23.30
2023-05-21T09:00:49.062Z,23.40
2023-05-21T09:03:16.921Z,23.50
2023-05-21T09:05:45.884Z,23.60
2023-05-21T09:08:21.986Z,23.70
2023-05-21T09:10:53.697Z,23.70
2023-05-21T09:13:23.828Z,23.80
2023-05-21T09:15:52.175Z,23.80
2023-05-21T09:18:19.126Z,23.90
2023-05-21T09:20:46.293Z,23.90
2023-05-21T09:23:18.096Z,24.00
2023-05-21T09:25:52.123Z,24.10
2023-05-21T09:28:20.258Z,24.20
2023-05-21T09:30:53.564Z,24.30
2023-05-21T09:33:29.838Z,24.30
2023-05-21T09:35:59.939Z,24.40
2023-05-21T09:38:29.517Z,24.40
2023-05-21T09:41:01.473Z,24.50
2023-05-21T09:43:31.188Z,24.50
2023-05-21T09:46:01.315Z,24.60
2023-05-21T09:48:42.884Z,24.70
2023-05-21T09:51:20.142Z,24.70
2023-05-21T09:54:10.791Z,24.80
2023-05-21T09:56:37.725Z,24.90
2023-05-21T09:59:04.762Z,24.90
2023-05-21T10:01:36.717Z,25.00
2023-05-21T10:04:07.951Z,25.00
2023-05-21T10:06:44.535Z,25.10
2023-05-21T10:09:12.333Z,25.10
2023-05-21T10:11:47.462Z,25.10
2023-05-21T10:14:22.664Z,25.20
2023-05-21T10:16:52.683Z,25.20
2023-05-21T10:19:22.807Z,25.30
2023-05-21T10:21:52.806Z,25.30
2023-05-21T10:24:20.105Z,25.40
2023-05-21T10:26:50.820Z,25.40
2023-05-21T10:29:19.952Z,25.50
2023-05-21T10:31:49.862Z,25.50
2023-05-21T10:34:19.862Z,25.60
2023-05-21T10:36:49.702Z,25.60
2023-05-21T10:39:19.844Z,25.70
2023-05-21T10:42:01.589Z,25.70
2023-05-21T10:44:49.725Z,25.80
2023-05-21T10:48:01.879Z,25.80
2023-05-21T10:50:59.571Z,25.80
2023-05-21T10:54:10.495Z,25.80
2023-05-21T10:56:59.162Z,25.80
2023-05-21T10:59:28.918Z,25.80
2023-05-21T11:01:59.438Z,25.90
2023-05-21T11:04:29.652Z,25.90
2023-05-21T11:06:59.217Z,26.00
2023-05-21T11:09:27.152Z,26.00
2023-05-21T11:12:04.682Z,26.10
2023-05-21T11:14:39.970Z,26.10
2023-05-21T11:17:16.124Z,26.20
2023-05-21T11:19:52.995Z,26.20
2023-05-21T11:22:27.704Z,26.30
2023-05-21T11:24:56.588Z,26.40
2023-05-21T11:27:53.785Z,26.40
2023-05-21T11:30:23.034Z,26.50
2023-05-21T11:33:08.423Z,26.50
2023-05-21T11:35:50.536Z,26.60
2023-05-21T11:38:18.517Z,26.60
2023-05-21T11:40:58.677Z,26.70
2023-05-21T11:43:27.225Z,26.70
2023-05-21T11:45:57.418Z,26.80
2023-05-21T11:48:29.396Z,26.80
2023-05-21T11:51:00.152Z,26.80
2023-05-21T11:53:32.490Z,26.90
2023-05-21T11:56:01.972Z,26.90
2023-05-21T11:58:31.641Z,26.90
2023-05-21T12:00:58.512Z,26.90
2023-05-21T12:03:27.286Z,26.90
2023-05-21T12:05:54.701Z,26.90
2023-05-21T12:08:25.446Z,26.90
2023-05-21T12:11:01.878Z,26.90
2023-05-21T12:13:29.138Z,26.90
2023-05-21T12:15:56.373Z,26.90
2023-05-21T12:18:25.614Z,27.00
2023-05-21T12:20:52.582Z,27.00
2023-05-21T12:23:28.235Z,27.10
2023-05-21T12:25:56.213Z,27.10
2023-05-21T12:28:24.751Z,27.10
2023-05-21T12:30:53.491Z,27.20
2023-05-21T12:33:21.697Z,27.20
2023-05-21T12:35:50.722Z,27.30
2023-05-21T12:38:19.922Z,27.30
2023-05-21T12:40:46.886Z,27.30
2023-05-21T12:43:16.137Z,27.30
2023-05-21T12:45:43.627Z,27.30
2023-05-21T12:48:16.583Z,27.30
2023-05-21T12:50:46.163Z,27.30
2023-05-21T12:53:15.218Z,27.30
2023-05-21T12:55:42.120Z,27.20
2023-05-21T12:58:13.654Z,27.20
2023-05-21T13:00:43.383Z,27.10
2023-05-21T13:03:10.405Z,27.10
2023-05-21T13:05:41.529Z,27.10
2023-05-21T13:08:11.284Z,27.10
2023-05-21T13:10:38.552Z,27.00
2023-05-21T13:13:07.949Z,27.00
2023-05-21T13:15:34.901Z,26.90
2023-05-21T13:18:02.154Z,26.80
2023-05-21T13:20:29.503Z,26.80
2023-05-21T13:22:58.738Z,26.70
2023-05-21T13:25:30.102Z,26.70
2023-05-21T13:28:02.680Z,26.60
2023-05-21T13:30:33.341Z,26.50
2023-05-21T13:33:00.522Z,26.50
2023-05-21T13:35:27.593Z,26.40
2023-05-21T13:37:54.657Z,26.30
2023-05-21T13:40:24.795Z,26.30
2023-05-21T13:42:53.968Z,26.20
2023-05-21T13:45:29.261Z,26.10
2023-05-21T13:47:56.630Z,26.00
2023-05-21T13:50:24.269Z,25.90
2023-05-21T13:52:51.381Z,25.80
2023-05-21T13:55:18.913Z,25.70
2023-05-21T13:57:46.201Z,25.70
2023-05-21T14:00:15.814Z,25.60
2023-05-21T14:02:44.106Z,25.60
2023-05-21T14:05:11.766Z,25.50
2023-05-21T14:07:40.047Z,25.50
2023-05-21T14:10:07.859Z,25.40
2023-05-21T14:12:34.782Z,25.40
2023-05-21T14:15:01.623Z,25.30
2023-05-21T14:17:28.555Z,25.30
2023-05-21T14:19:55.921Z,25.30
2023-05-21T14:22:23.168Z,25.20
2023-05-21T14:24:54.932Z,25.20
2023-05-21T14:27:23.964Z,25.10
2023-05-21T14:29:51.016Z,25.10
2023-05-21T14:32:20.674Z,25.10
2023-05-21T14:34:50.003Z,25.00
2023-05-21T14:37:21.706Z,25.00
2023-05-21T14:39:48.623Z,25.00
2023-05-21T14:42:15.674Z,24.90
2023-05-21T14:44:47.104Z,24.90
2023-05-21T14:47:14.101Z,24.90
2023-05-21T14:49:41.052Z,24.90
2023-05-21T14:52:07.946Z,24.90
2023-05-21T14:54:34.897Z,24.90
2023-05-21T14:57:01.785Z,24.90
2023-05-21T14:59:31.030Z,24.90
2023-05-21T15:02:01.144Z,24.90
2023-05-21T15:04:28.253Z,24.80
2023-05-21T15:06:55.168Z,24.80
2023-05-21T15:09:22.149Z,24.80
2023-05-21T15:11:52.468Z,24.80
2023-05-21T15:14:20.800Z,24.80
2023-05-21T15:16:50.507Z,24.70
2023-05-21T15:19:17.624Z,24.70
2023-05-21T15:21:44.560Z,24.70
2023-05-21T15:24:11.693Z,24.70
2023-05-21T15:26:38.644Z,24.70
2023-05-21T15:29:05.687Z,24.70
2023-05-21T15:31:35.543Z,24.70
2023-05-21T15:34:02.481Z,24.70
2023-05-21T15:36:29.564Z,24.70
2023-05-21T15:38:56.535Z,24.70
2023-05-21T15:41:26.124Z,24.70
2023-05-21T15:43:55.531Z,24.70
2023-05-21T15:46:24.827Z,24.70
2023-05-21T15:48:51.722Z,24.70
2023-05-21T15:51:18.860Z,24.70
2023-05-21T15:53:45.780Z,24.80
2023-05-21T15:56:12.727Z,24.80
2023-05-21T15:58:39.635Z,24.80
2023-05-21T16:01:08.840Z,24.80
2023-05-21T16:03:35.780Z,24.70
2023-05-21T16:06:04.310Z,24.80
2023-05-21T16:08:33.542Z,24.80
2023-05-21T16:11:03.007Z,24.80
2023-05-21T16:13:29.989Z,24.80
2023-05-21T16:15:59.071Z,24.80
2023-05-21T16:18:26.150Z,24.80
2023-05-21T16:20:55.730Z,24.80
2023-05-21T16:23:26.138Z,24.80
2023-05-21T16:25:53.045Z,24.80
2023-05-21T16:28:20.990Z,24.70
2023-05-21T16:30:51.385Z,24.70
2023-05-21T16:33:19.277Z,24.70
2023-05-21T16:35:51.524Z,24.70
2023-05-21T16:38:18.655Z,24.70
2023-05-21T16:40:48.963Z,24.70
2023-05-21T16:43:16.454Z,24.60
2023-05-21T16:45:46.448Z,24.60
2023-05-21T16:48:16.517Z,24.60
2023-05-21T16:50:43.787Z,24.60
2023-05-21T16:53:11.409Z,24.60
2023-05-21T16:55:42.315Z,24.60
2023-05-21T16:58:10.862Z,24.60
2023-05-21T17:00:37.957Z,24.50
2023-05-21T17:03:05.095Z,24.50
2023-05-21T17:05:32.149Z,24.50
2023-05-21T17:07:59.136Z,24.50
2023-05-21T17:10:26.058Z,24.50
2023-05-21T17:12:56.406Z,24.50
2023-05-21T17:15:24.035Z,24.40
2023-05-21T17:17:53.153Z,24.40
2023-05-21T17:20:20.035Z,24.30
2023-05-21T17:22:47.087Z,24.30
2023-05-21T17:25:16.266Z,24.30
2023-05-21T17:27:45.550Z,24.30
2023-05-21T17:30:13.016Z,24.20
2023-05-21T17:32:42.530Z,24.20
2023-05-21T17:35:10.360Z,24.20
2023-05-21T17:37:37.246Z,24.10
2023-05-21T17:40:05.652Z,24.10
2023-05-21T17:42:34.772Z,24.00
2023-05-21T17:45:03.875Z,24.00
2023-05-21T17:47:32.933Z,23.90
2023-05-21T17:50:02.136Z,23.90
2023-05-21T17:52:31.604Z,23.80
2023-05-21T17:54:58.470Z,23.80
2023-05-21T17:57:27.788Z,23.70
2023-05-21T17:59:57.409Z,23.70
2023-05-21T18:02:24.498Z,23.60
2023-05-21T18:04:51.666Z,23.60
2023-05-21T18:07:18.575Z,23.50
2023-05-21T18:09:45.511Z,23.50
2023-05-21T18:12:12.418Z,23.40
2023-05-21T18:14:39.360Z,23.30
2023-05-21T18:17:06.802Z,23.30
2023-05-21T18:19:33.881Z,23.20
2023-05-21T18:22:00.784Z,23.20
2023-05-21T18:24:27.825Z,23.10
2023-05-21T18:26:54.825Z,23.10
2023-05-21T18:29:21.739Z,23.00
2023-05-21T18:31:48.863Z,23.00
2023-05-21T18:34:17.892Z,22.90
2023-05-21T18:36:48.149Z,22.90
2023-05-21T18:39:15.184Z,22.80
2023-05-21T18:41:44.718Z,22.80
2023-05-21T18:44:11.648Z,22.70
2023-05-21T18:46:38.602Z,22.70
2023-05-21T18:49:05.963Z,22.60
2023-05-21T18:51:35.448Z,22.60
2023-05-21T18:54:05.130Z,22.50
2023-05-21T18:56:32.129Z,22.50
2023-05-21T18:58:59.022Z,22.40
2023-05-21T19:01:26.630Z,22.40
2023-05-21T19:03:55.869Z,22.30
2023-05-21T19:06:26.456Z,22.20
2023-05-21T19:08:56.361Z,22.20
2023-05-21T19:11:23.903Z,22.10
2023-05-21T19:13:50.968Z,22.00
2023-05-21T19:16:22.742Z,22.00
2023-05-21T19:18:51.961Z,21.90
2023-05-21T19:21:21.488Z,21.90
2023-05-21T19:23:53.223Z,21.80
2023-05-21T19:26:24.674Z,21.70
2023-05-21T19:28:53.778Z,21.70
2023-05-21T19:31:25.181Z,21.60
2023-05-21T19:33:52.344Z,21.50
2023-05-21T19:36:23.062Z,21.50
2023-05-21T19:38:50.853Z,21.40
2023-05-21T19:41:22.758Z,21.40
2023-05-21T19:43:51.108Z,21.40
2023-05-21T19:46:20.927Z,21.40
2023-05-21T19:48:48.929Z,21.30
2023-05-21T19:51:16.980Z,21.30
2023-05-21T19:53:43.877Z,21.20
2023-05-21T19:56:10.954Z,21.10
2023-05-21T19:58:37.863Z,21.10
2023-05-21T20:01:06.076Z,21.00
2023-05-21T20:03:35.958Z,21.00
2023-05-21T20:06:03.678Z,20.90
2023-05-21T20:08:33.678Z,20.90
2023-05-21T20:11:03.263Z,20.90
2023-05-21T20:13:34.705Z,20.80
2023-05-21T20:16:06.121Z,20.80
2023-05-21T20:18:33.056Z,20.80
2023-05-21T20:21:06.055Z,20.70
2023-05-21T20:23:33.007Z,20.70
2023-05-21T20:26:02.249Z,20.70
2023-05-21T20:28:29.156Z,20.70
2023-05-21T20:31:03.087Z,20.60
2023-05-21T20:33:32.755Z,20.60
2023-05-21T20:36:00.805Z,20.50
2023-05-21T20:38:27.901Z,20.40
2023-05-21T20:40:57.978Z,20.40
2023-05-21T20:43:27.125Z,20.30
2023-05-21T20:45:59.913Z,20.30
2023-05-21T20:48:29.493Z,20.30
2023-05-21T20:51:00.256Z,20.20
2023-05-21T20:53:30.412Z,20.20
2023-05-21T20:55:57.341Z,20.20
2023-05-21T20:58:27.846Z,20.20
2023-05-21T21:00:55.341Z,20.20
2023-05-21T21:03:24.997Z,20.10
2023-05-21T21:05:52.857Z,20.10
2023-05-21T21:08:19.811Z,20.00
2023-05-21T21:10:48.817Z,20.00
2023-05-21T21:13:15.803Z,20.00
2023-05-21T21:15:43.795Z,20.00
2023-05-21T21:18:13.718Z,20.00
2023-05-21T21:20:49.484Z,19.90
2023-05-21T21:23:16.799Z,20.00
2023-05-21T21:25:46.137Z,20.00
2023-05-21T21:28:15.516Z,19.90
2023-05-21T21:30:45.736Z,19.90
2023-05-21T21:33:16.349Z,19.90
2023-05-21T21:35:45.784Z,19.90
2023-05-21T21:38:14.798Z,19.80
2023-05-21T21:40:43.779Z,19.80
2023-05-21T21:43:12.871Z,19.80
2023-05-21T21:45:39.812Z,19.80
2023-05-21T21:48:07.177Z,19.70
2023-05-21T21:50:34.103Z,19.70
2023-05-21T21:53:03.778Z,19.70
2023-05-21T21:55:33.216Z,19.70
2023-05-21T21:58:00.124Z,19.60
2023-05-21T22:00:27.068Z,19.60
2023-05-21T22:02:54.125Z,19.60
2023-05-21T22:05:23.617Z,19.60
2023-05-21T22:07:52.045Z,19.60
2023-05-21T22:10:21.441Z,19.60
2023-05-21T22:12:48.481Z,19.50
2023-05-21T22:15:25.240Z,19.50
2023-05-21T22:17:52.362Z,19.50
2023-05-21T22:20:19.676Z,19.50
2023-05-21T22:22:47.076Z,19.40
2023-05-21T22:25:14.511Z,19.40
2023-05-21T22:27:42.333Z,19.30
2023-05-21T22:30:10.036Z,19.30
2023-05-21T22:32:38.006Z,19.30
2023-05-21T22:35:06.000Z,19.30
2023-05-21T22:37:32.929Z,19.30
2023-05-21T22:40:02.894Z,19.30
2023-05-21T22:42:29.814Z,19.30
2023-05-21T22:44:56.958Z,19.30
2023-05-21T22:47:26.486Z,19.40
2023-05-21T22:49:58.399Z,19.40
2023-05-21T22:52:28.797Z,19.40
2023-05-21T22:54:57.852Z,19.40
2023-05-21T22:57:27.093Z,19.40
2023-05-21T22:59:53.983Z,19.40
2023-05-21T23:02:23.636Z,19.40
2023-05-21T23:04:52.929Z,19.40
2023-05-21T23:07:19.939Z,19.40
2023-05-21T23:09:47.078Z,19.40
2023-05-21T23:12:16.660Z,19.40
2023-05-21T23:14:43.645Z,19.40
2023-05-21T23:17:10.541Z,19.40
2023-05-21T23:19:39.833Z,19.40
2023-05-21T23:22:11.579Z,19.30
2023-05-21T23:24:40.648Z,19.30
2023-05-21T23:27:07.662Z,19.30
2023-05-21T23:29:34.591Z,19.30
2023-05-21T23:32:01.627Z,19.30
2023-05-21T23:34:28.801Z,19.30
2023-05-21T23:37:00.312Z,19.30
2023-05-21T23:39:30.010Z,19.30
2023-05-21T23:41:57.260Z,19.20
2023-05-21T23:44:24.228Z,19.20
2023-05-21T23:46:53.189Z,19.20
2023-05-21T23:49:22.397Z,19.20
2023-05-21T23:51:52.300Z,19.20
2023-05-21T23:54:19.353Z,19.20
2023-05-21T23:56:46.482Z,19.20
2023-05-21T23:59:18.317Z,19.30
